Погода Атбарана 2 недели

Нил, Судан

23 февраля-07 марта
  • 23февраля
    Сегодня
    +24°
    +37°
    Облачно с прояснениями
    ВремяПогодаТемператураВлажностьДавлениеВетер, м/сВероятность осадков
    02:00Облачно с прояснениями+25°C66 %726 мм7.4 м/с0 %
    05:00Небольшая облачность+23°C80 %726 мм6.3 м/с0 %
    08:00Ясно и безоблачно+25°C67 %728 мм7.1 м/с0 %
    11:00Облачно с прояснениями+32°C43 %727 мм3.4 м/с0 %
    14:00Облачно с прояснениями+36°C33 %726 мм3.0 м/с0 %
    17:00Облачно с прояснениями+36°C32 %726 мм4.2 м/с0 %
    20:00Облачно с прояснениями+33°C35 %727 мм5.8 м/с0 %
    23:00Облачно с прояснениями+31°C39 %728 мм6.9 м/с0 %
  • 24февраля
    Суббота
    +22°
    +36°
    Ясно и безоблачно
    ВремяПогодаТемператураВлажностьДавлениеВетер, м/сВероятность осадков
    02:00Практически безоблачно+28°C30 %728 мм8.4 м/с0 %
    05:00Ясно и безоблачно+26°C57 %729 мм8.9 м/с0 %
    08:00Практически безоблачно+26°C49 %731 мм10.2 м/с0 %
    11:00Ясно и безоблачно+31°C34 %731 мм9.6 м/с0 %
    14:00Ясно и безоблачно+35°C25 %729 мм8.0 м/с0 %
    17:00Ясно и безоблачно+35°C25 %729 мм6.8 м/с0 %
    20:00Ясно и безоблачно+32°C27 %729 мм5.3 м/с0 %
    23:00Ясно и безоблачно+30°C30 %730 мм7.7 м/с0 %
  • 25февраля
    Воскресенье
    +21°
    +36°
    Ясно и безоблачно
    ВремяПогодаТемператураВлажностьДавлениеВетер, м/сВероятность осадков
    02:00Ясно и безоблачно+26°C47 %729 мм4.0 м/с0 %
    05:00Ясно и безоблачно+24°C55 %729 мм4.8 м/с0 %
    08:00Ясно и безоблачно+25°C43 %730 мм5.2 м/с0 %
    11:00Ясно и безоблачно+32°C26 %730 мм5.5 м/с0 %
    14:00Ясно и безоблачно+36°C18 %728 мм6.7 м/с0 %
    17:00Ясно и безоблачно+35°C19 %728 мм7.2 м/с0 %
    20:00Ясно и безоблачно+31°C23 %729 мм5.9 м/с0 %
    23:00Ясно и безоблачно+28°C26 %729 мм5.8 м/с0 %
  • 26февраля
    Понедельник
    +19°
    +33°
    Ясно и безоблачно
    ВремяПогодаТемператураВлажностьДавлениеВетер, м/сВероятность осадков
    02:00Ясно и безоблачно+25°C25 %728 мм6.1 м/с0 %
    05:00Ясно и безоблачно+23°C21 %728 мм5.6 м/с0 %
    08:00Ясно и безоблачно+23°C21 %729 мм5.9 м/с0 %
    11:00Ясно и безоблачно+29°C22 %730 мм5.8 м/с0 %
    14:00Ясно и безоблачно+33°C16 %728 мм5.3 м/с0 %
    17:00Ясно и безоблачно+32°C15 %727 мм5.5 м/с0 %
    20:00Ясно и безоблачно+28°C20 %728 мм4.0 м/с0 %
    23:00Ясно и безоблачно+25°C23 %728 мм5.0 м/с0 %
  • 27февраля
    Вторник
    +18°
    +33°
    Ясно и безоблачно
    ВремяПогодаТемператураВлажностьДавлениеВетер, м/сВероятность осадков
    02:00Ясно и безоблачно+23°C26 %727 мм6.0 м/с0 %
    05:00Практически безоблачно+20°C29 %728 мм5.7 м/с0 %
    08:00Ясно и безоблачно+21°C21 %730 мм5.1 м/с0 %
    11:00Ясно и безоблачно+28°C13 %730 мм6.4 м/с0 %
    14:00Ясно и безоблачно+32°C9 %728 мм5.2 м/с0 %
    17:00Ясно и безоблачно+32°C8 %728 мм5.6 м/с0 %
    20:00Ясно и безоблачно+28°C10 %728 мм4.7 м/с0 %
    23:00Ясно и безоблачно+24°C12 %728 мм5.1 м/с0 %
Мы используем cookies
Соглашаюсь